sensor_id;sensor_type;location;lat;lon;timestamp;P1;durP1;ratioP1;P2;durP2;ratioP2
9224;SDS011;4647;48.072;11.616;2022-12-10T00:02:09;45.93;;;27.63;;
9224;SDS011;4647;48.072;11.616;2022-12-10T00:04:36;46.40;;;26.27;;
9224;SDS011;4647;48.072;11.616;2022-12-10T00:07:04;45.87;;;27.47;;
9224;SDS011;4647;48.072;11.616;2022-12-10T00:09:31;44.83;;;27.03;;
9224;SDS011;4647;48.072;11.616;2022-12-10T00:11:57;43.90;;;26.63;;
9224;SDS011;4647;48.072;11.616;2022-12-10T00:14:24;45.80;;;25.50;;
9224;SDS011;4647;48.072;11.616;2022-12-10T00:16:51;44.77;;;26.73;;
9224;SDS011;4647;48.072;11.616;2022-12-10T00:19:18;51.77;;;27.43;;
9224;SDS011;4647;48.072;11.616;2022-12-10T00:21:45;45.80;;;27.17;;
9224;SDS011;4647;48.072;11.616;2022-12-10T00:24:13;48.87;;;28.03;;
9224;SDS011;4647;48.072;11.616;2022-12-10T00:26:40;49.57;;;27.07;;
9224;SDS011;4647;48.072;11.616;2022-12-10T00:29:09;45.03;;;27.30;;
9224;SDS011;4647;48.072;11.616;2022-12-10T00:31:37;48.97;;;27.57;;
9224;SDS011;4647;48.072;11.616;2022-12-10T00:34:05;46.33;;;26.20;;
9224;SDS011;4647;48.072;11.616;2022-12-10T00:36:34;53.83;;;30.23;;
9224;SDS011;4647;48.072;11.616;2022-12-10T00:39:03;48.90;;;27.63;;
9224;SDS011;4647;48.072;11.616;2022-12-10T00:41:31;51.27;;;28.40;;
9224;SDS011;4647;48.072;11.616;2022-12-10T00:43:58;56.17;;;28.63;;
9224;SDS011;4647;48.072;11.616;2022-12-10T00:46:25;43.30;;;26.33;;
9224;SDS011;4647;48.072;11.616;2022-12-10T00:48:52;48.93;;;27.03;;
9224;SDS011;4647;48.072;11.616;2022-12-10T00:51:20;49.73;;;28.03;;
9224;SDS011;4647;48.072;11.616;2022-12-10T00:53:48;53.03;;;28.73;;
9224;SDS011;4647;48.072;11.616;2022-12-10T00:56:17;49.00;;;28.30;;
9224;SDS011;4647;48.072;11.616;2022-12-10T00:58:47;54.70;;;28.53;;
9224;SDS011;4647;48.072;11.616;2022-12-10T01:01:15;51.60;;;28.10;;
9224;SDS011;4647;48.072;11.616;2022-12-10T01:03:45;52.27;;;29.63;;
9224;SDS011;4647;48.072;11.616;2022-12-10T01:06:13;49.43;;;27.87;;
9224;SDS011;4647;48.072;11.616;2022-12-10T01:08:43;54.83;;;29.73;;
9224;SDS011;4647;48.072;11.616;2022-12-10T01:11:11;51.67;;;28.83;;
9224;SDS011;4647;48.072;11.616;2022-12-10T01:13:39;52.00;;;28.57;;
9224;SDS011;4647;48.072;11.616;2022-12-10T01:16:09;51.37;;;28.67;;
9224;SDS011;4647;48.072;11.616;2022-12-10T01:18:37;56.10;;;30.03;;
9224;SDS011;4647;48.072;11.616;2022-12-10T01:21:04;48.43;;;29.00;;
9224;SDS011;4647;48.072;11.616;2022-12-10T01:23:33;48.10;;;28.23;;
9224;SDS011;4647;48.072;11.616;2022-12-10T01:26:01;48.97;;;28.10;;
9224;SDS011;4647;48.072;11.616;2022-12-10T01:28:29;52.27;;;29.33;;
9224;SDS011;4647;48.072;11.616;2022-12-10T01:30:59;49.40;;;28.40;;
9224;SDS011;4647;48.072;11.616;2022-12-10T01:33:29;46.77;;;28.20;;
9224;SDS011;4647;48.072;11.616;2022-12-10T01:35:56;46.83;;;27.97;;
9224;SDS011;4647;48.072;11.616;2022-12-10T01:38:23;49.37;;;29.40;;
9224;SDS011;4647;48.072;11.616;2022-12-10T01:40:50;50.47;;;28.63;;
9224;SDS011;4647;48.072;11.616;2022-12-10T01:43:16;53.27;;;29.60;;
9224;SDS011;4647;48.072;11.616;2022-12-10T01:45:43;46.87;;;27.03;;
9224;SDS011;4647;48.072;11.616;2022-12-10T01:48:10;46.93;;;27.67;;
9224;SDS011;4647;48.072;11.616;2022-12-10T01:50:39;52.33;;;29.17;;
9224;SDS011;4647;48.072;11.616;2022-12-10T01:53:06;48.93;;;27.37;;
9224;SDS011;4647;48.072;11.616;2022-12-10T01:55:41;47.70;;;27.80;;
9224;SDS011;4647;48.072;11.616;2022-12-10T01:58:11;53.20;;;29.80;;
9224;SDS011;4647;48.072;11.616;2022-12-10T02:00:41;47.80;;;28.53;;
9224;SDS011;4647;48.072;11.616;2022-12-10T02:03:14;52.63;;;28.10;;
9224;SDS011;4647;48.072;11.616;2022-12-10T02:05:49;51.50;;;29.67;;
9224;SDS011;4647;48.072;11.616;2022-12-10T02:08:24;54.27;;;29.87;;
9224;SDS011;4647;48.072;11.616;2022-12-10T02:10:59;52.83;;;29.20;;
9224;SDS011;4647;48.072;11.616;2022-12-10T02:13:33;48.57;;;29.13;;
9224;SDS011;4647;48.072;11.616;2022-12-10T02:16:06;52.90;;;28.57;;
9224;SDS011;4647;48.072;11.616;2022-12-10T02:18:39;51.10;;;27.57;;
9224;SDS011;4647;48.072;11.616;2022-12-10T02:21:13;51.27;;;29.37;;
9224;SDS011;4647;48.072;11.616;2022-12-10T02:23:44;54.80;;;29.20;;
9224;SDS011;4647;48.072;11.616;2022-12-10T02:26:18;52.97;;;29.17;;
9224;SDS011;4647;48.072;11.616;2022-12-10T02:28:51;53.67;;;30.17;;
9224;SDS011;4647;48.072;11.616;2022-12-10T02:31:23;51.20;;;28.53;;
9224;SDS011;4647;48.072;11.616;2022-12-10T02:33:56;52.80;;;29.67;;
9224;SDS011;4647;48.072;11.616;2022-12-10T02:36:27;51.20;;;28.87;;
9224;SDS011;4647;48.072;11.616;2022-12-10T02:38:56;50.70;;;29.83;;
9224;SDS011;4647;48.072;11.616;2022-12-10T02:41:26;50.37;;;27.77;;
9224;SDS011;4647;48.072;11.616;2022-12-10T02:43:56;53.20;;;28.73;;
9224;SDS011;4647;48.072;11.616;2022-12-10T02:46:28;48.90;;;28.23;;
9224;SDS011;4647;48.072;11.616;2022-12-10T02:48:56;52.10;;;27.93;;
9224;SDS011;4647;48.072;11.616;2022-12-10T02:51:25;49.77;;;28.40;;
9224;SDS011;4647;48.072;11.616;2022-12-10T02:53:58;49.40;;;28.43;;
9224;SDS011;4647;48.072;11.616;2022-12-10T02:56:27;45.00;;;27.40;;
9224;SDS011;4647;48.072;11.616;2022-12-10T02:59:02;58.03;;;29.50;;
9224;SDS011;4647;48.072;11.616;2022-12-10T03:01:39;53.27;;;28.00;;
9224;SDS011;4647;48.072;11.616;2022-12-10T03:04:16;51.80;;;29.03;;
9224;SDS011;4647;48.072;11.616;2022-12-10T03:06:50;52.37;;;28.93;;
9224;SDS011;4647;48.072;11.616;2022-12-10T03:09:20;53.07;;;29.30;;
9224;SDS011;4647;48.072;11.616;2022-12-10T03:11:52;46.83;;;26.17;;
9224;SDS011;4647;48.072;11.616;2022-12-10T03:14:25;50.30;;;26.80;;
9224;SDS011;4647;48.072;11.616;2022-12-10T03:16:58;44.97;;;25.77;;
9224;SDS011;4647;48.072;11.616;2022-12-10T03:19:27;46.27;;;25.97;;
9224;SDS011;4647;48.072;11.616;2022-12-10T03:21:58;48.40;;;27.40;;
9224;SDS011;4647;48.072;11.616;2022-12-10T03:24:27;50.20;;;28.37;;
9224;SDS011;4647;48.072;11.616;2022-12-10T03:26:54;45.90;;;26.97;;
9224;SDS011;4647;48.072;11.616;2022-12-10T03:29:24;43.93;;;25.93;;
9224;SDS011;4647;48.072;11.616;2022-12-10T03:31:58;41.90;;;26.50;;
9224;SDS011;4647;48.072;11.616;2022-12-10T03:34:26;51.47;;;29.07;;
9224;SDS011;4647;48.072;11.616;2022-12-10T03:36:54;44.63;;;27.40;;
9224;SDS011;4647;48.072;11.616;2022-12-10T03:39:22;49.23;;;28.60;;
9224;SDS011;4647;48.072;11.616;2022-12-10T03:41:49;48.13;;;28.20;;
9224;SDS011;4647;48.072;11.616;2022-12-10T03:44:26;46.53;;;27.40;;
9224;SDS011;4647;48.072;11.616;2022-12-10T03:46:54;49.17;;;27.50;;
9224;SDS011;4647;48.072;11.616;2022-12-10T03:49:22;47.03;;;27.47;;
9224;SDS011;4647;48.072;11.616;2022-12-10T03:51:49;46.60;;;27.50;;
9224;SDS011;4647;48.072;11.616;2022-12-10T03:54:16;46.17;;;28.03;;
9224;SDS011;4647;48.072;11.616;2022-12-10T03:56:43;51.20;;;28.30;;
9224;SDS011;4647;48.072;11.616;2022-12-10T03:59:10;46.43;;;27.10;;
9224;SDS011;4647;48.072;11.616;2022-12-10T04:01:37;44.33;;;26.90;;
9224;SDS011;4647;48.072;11.616;2022-12-10T04:04:04;45.53;;;27.33;;
9224;SDS011;4647;48.072;11.616;2022-12-10T04:06:33;50.17;;;27.57;;
9224;SDS011;4647;48.072;11.616;2022-12-10T04:09:00;45.60;;;26.17;;
9224;SDS011;4647;48.072;11.616;2022-12-10T04:11:27;48.63;;;27.67;;
9224;SDS011;4647;48.072;11.616;2022-12-10T04:13:54;53.30;;;27.60;;
9224;SDS011;4647;48.072;11.616;2022-12-10T04:16:38;47.97;;;28.23;;
9224;SDS011;4647;48.072;11.616;2022-12-10T04:19:06;47.67;;;27.43;;
9224;SDS011;4647;48.072;11.616;2022-12-10T04:21:36;52.47;;;27.60;;
9224;SDS011;4647;48.072;11.616;2022-12-10T04:24:22;51.40;;;28.03;;
9224;SDS011;4647;48.072;11.616;2022-12-10T04:27:08;45.57;;;26.90;;
9224;SDS011;4647;48.072;11.616;2022-12-10T04:29:37;45.83;;;26.03;;
9224;SDS011;4647;48.072;11.616;2022-12-10T04:32:05;45.07;;;26.47;;
9224;SDS011;4647;48.072;11.616;2022-12-10T04:34:31;45.67;;;26.07;;
9224;SDS011;4647;48.072;11.616;2022-12-10T04:37:00;47.33;;;28.03;;
9224;SDS011;4647;48.072;11.616;2022-12-10T04:39:28;49.50;;;26.73;;
9224;SDS011;4647;48.072;11.616;2022-12-10T04:41:55;47.27;;;27.17;;
9224;SDS011;4647;48.072;11.616;2022-12-10T04:44:22;48.97;;;27.67;;
9224;SDS011;4647;48.072;11.616;2022-12-10T04:46:49;48.13;;;28.37;;
9224;SDS011;4647;48.072;11.616;2022-12-10T04:49:16;47.57;;;28.20;;
9224;SDS011;4647;48.072;11.616;2022-12-10T04:51:43;46.23;;;27.20;;
9224;SDS011;4647;48.072;11.616;2022-12-10T04:54:12;49.63;;;28.47;;
9224;SDS011;4647;48.072;11.616;2022-12-10T04:56:39;50.10;;;28.73;;
9224;SDS011;4647;48.072;11.616;2022-12-10T04:59:07;49.90;;;28.87;;
9224;SDS011;4647;48.072;11.616;2022-12-10T05:01:34;51.13;;;28.03;;
9224;SDS011;4647;48.072;11.616;2022-12-10T05:04:02;49.53;;;28.17;;
9224;SDS011;4647;48.072;11.616;2022-12-10T05:06:31;48.67;;;28.40;;
9224;SDS011;4647;48.072;11.616;2022-12-10T05:08:58;46.40;;;26.37;;
9224;SDS011;4647;48.072;11.616;2022-12-10T05:11:27;46.10;;;27.53;;
9224;SDS011;4647;48.072;11.616;2022-12-10T05:13:56;44.37;;;27.53;;
9224;SDS011;4647;48.072;11.616;2022-12-10T05:16:23;47.60;;;27.90;;
9224;SDS011;4647;48.072;11.616;2022-12-10T05:18:52;42.00;;;27.17;;
9224;SDS011;4647;48.072;11.616;2022-12-10T05:21:19;41.77;;;26.63;;
9224;SDS011;4647;48.072;11.616;2022-12-10T05:23:48;45.37;;;26.53;;
9224;SDS011;4647;48.072;11.616;2022-12-10T05:26:16;45.10;;;25.87;;
9224;SDS011;4647;48.072;11.616;2022-12-10T05:28:46;45.83;;;26.33;;
9224;SDS011;4647;48.072;11.616;2022-12-10T05:31:15;44.43;;;26.53;;
9224;SDS011;4647;48.072;11.616;2022-12-10T05:33:43;45.17;;;26.67;;
9224;SDS011;4647;48.072;11.616;2022-12-10T05:36:11;46.43;;;27.80;;
9224;SDS011;4647;48.072;11.616;2022-12-10T05:38:39;42.87;;;24.90;;
9224;SDS011;4647;48.072;11.616;2022-12-10T05:41:08;41.53;;;24.77;;
9224;SDS011;4647;48.072;11.616;2022-12-10T05:43:36;46.80;;;26.80;;
9224;SDS011;4647;48.072;11.616;2022-12-10T05:46:05;48.80;;;25.67;;
9224;SDS011;4647;48.072;11.616;2022-12-10T05:48:33;43.80;;;25.67;;
9224;SDS011;4647;48.072;11.616;2022-12-10T05:51:02;48.60;;;26.80;;
9224;SDS011;4647;48.072;11.616;2022-12-10T05:53:30;46.90;;;26.73;;
9224;SDS011;4647;48.072;11.616;2022-12-10T05:55:59;47.60;;;26.53;;
9224;SDS011;4647;48.072;11.616;2022-12-10T05:58:26;48.20;;;26.20;;
9224;SDS011;4647;48.072;11.616;2022-12-10T06:00:53;56.77;;;28.87;;
9224;SDS011;4647;48.072;11.616;2022-12-10T06:03:21;58.77;;;29.53;;
9224;SDS011;4647;48.072;11.616;2022-12-10T06:05:49;62.07;;;28.97;;
9224;SDS011;4647;48.072;11.616;2022-12-10T06:08:16;62.30;;;30.17;;
9224;SDS011;4647;48.072;11.616;2022-12-10T06:10:42;62.80;;;30.30;;
9224;SDS011;4647;48.072;11.616;2022-12-10T06:13:09;63.77;;;31.37;;
9224;SDS011;4647;48.072;11.616;2022-12-10T06:15:38;67.60;;;32.17;;
9224;SDS011;4647;48.072;11.616;2022-12-10T06:18:05;69.80;;;31.93;;
9224;SDS011;4647;48.072;11.616;2022-12-10T06:20:34;70.07;;;32.00;;
9224;SDS011;4647;48.072;11.616;2022-12-10T06:23:03;74.57;;;32.80;;
9224;SDS011;4647;48.072;11.616;2022-12-10T06:25:30;64.47;;;30.90;;
9224;SDS011;4647;48.072;11.616;2022-12-10T06:27:58;62.07;;;29.77;;
9224;SDS011;4647;48.072;11.616;2022-12-10T06:30:25;69.67;;;31.83;;
9224;SDS011;4647;48.072;11.616;2022-12-10T06:32:52;67.83;;;32.93;;
9224;SDS011;4647;48.072;11.616;2022-12-10T06:35:18;70.33;;;34.27;;
9224;SDS011;4647;48.072;11.616;2022-12-10T06:37:48;66.63;;;33.17;;
9224;SDS011;4647;48.072;11.616;2022-12-10T06:40:15;68.23;;;33.80;;
9224;SDS011;4647;48.072;11.616;2022-12-10T06:42:43;67.47;;;33.87;;
9224;SDS011;4647;48.072;11.616;2022-12-10T06:45:10;75.80;;;33.60;;
9224;SDS011;4647;48.072;11.616;2022-12-10T06:47:37;68.77;;;34.70;;
9224;SDS011;4647;48.072;11.616;2022-12-10T06:50:04;73.73;;;34.97;;
9224;SDS011;4647;48.072;11.616;2022-12-10T06:52:31;70.57;;;34.90;;
9224;SDS011;4647;48.072;11.616;2022-12-10T06:55:00;69.57;;;35.57;;
9224;SDS011;4647;48.072;11.616;2022-12-10T06:57:26;69.20;;;35.17;;
9224;SDS011;4647;48.072;11.616;2022-12-10T06:59:54;69.57;;;34.83;;
9224;SDS011;4647;48.072;11.616;2022-12-10T07:02:21;72.00;;;35.20;;
9224;SDS011;4647;48.072;11.616;2022-12-10T07:04:48;66.73;;;33.97;;
9224;SDS011;4647;48.072;11.616;2022-12-10T07:07:15;75.60;;;37.87;;
9224;SDS011;4647;48.072;11.616;2022-12-10T07:09:42;74.67;;;36.00;;
9224;SDS011;4647;48.072;11.616;2022-12-10T07:12:10;68.30;;;35.17;;
9224;SDS011;4647;48.072;11.616;2022-12-10T07:14:37;69.23;;;33.97;;
9224;SDS011;4647;48.072;11.616;2022-12-10T07:17:04;65.93;;;34.63;;
9224;SDS011;4647;48.072;11.616;2022-12-10T07:19:30;61.80;;;34.47;;
9224;SDS011;4647;48.072;11.616;2022-12-10T07:21:57;66.47;;;34.70;;
9224;SDS011;4647;48.072;11.616;2022-12-10T07:24:24;59.30;;;33.83;;
9224;SDS011;4647;48.072;11.616;2022-12-10T07:26:51;61.77;;;34.37;;
9224;SDS011;4647;48.072;11.616;2022-12-10T07:29:20;59.33;;;33.90;;
9224;SDS011;4647;48.072;11.616;2022-12-10T07:31:47;63.63;;;35.73;;
9224;SDS011;4647;48.072;11.616;2022-12-10T07:34:15;59.17;;;33.20;;
9224;SDS011;4647;48.072;11.616;2022-12-10T07:36:42;63.73;;;33.27;;
9224;SDS011;4647;48.072;11.616;2022-12-10T07:39:09;57.70;;;31.37;;
9224;SDS011;4647;48.072;11.616;2022-12-10T07:41:42;62.73;;;34.33;;
9224;SDS011;4647;48.072;11.616;2022-12-10T07:44:09;59.43;;;34.27;;
9224;SDS011;4647;48.072;11.616;2022-12-10T07:46:39;58.43;;;33.57;;
9224;SDS011;4647;48.072;11.616;2022-12-10T07:49:06;55.23;;;31.80;;
9224;SDS011;4647;48.072;11.616;2022-12-10T07:51:33;55.67;;;32.37;;
9224;SDS011;4647;48.072;11.616;2022-12-10T07:54:00;56.67;;;31.97;;
9224;SDS011;4647;48.072;11.616;2022-12-10T07:56:27;61.23;;;33.33;;
9224;SDS011;4647;48.072;11.616;2022-12-10T07:58:53;55.30;;;31.67;;
9224;SDS011;4647;48.072;11.616;2022-12-10T08:01:22;49.33;;;29.73;;
9224;SDS011;4647;48.072;11.616;2022-12-10T08:03:52;50.67;;;28.73;;
9224;SDS011;4647;48.072;11.616;2022-12-10T08:06:21;49.30;;;29.53;;
9224;SDS011;4647;48.072;11.616;2022-12-10T08:08:49;48.00;;;28.77;;
9224;SDS011;4647;48.072;11.616;2022-12-10T08:11:16;50.40;;;29.90;;
9224;SDS011;4647;48.072;11.616;2022-12-10T08:13:45;48.57;;;28.23;;
9224;SDS011;4647;48.072;11.616;2022-12-10T08:16:14;46.10;;;28.40;;
9224;SDS011;4647;48.072;11.616;2022-12-10T08:18:43;52.10;;;28.93;;
9224;SDS011;4647;48.072;11.616;2022-12-10T08:21:12;43.87;;;27.67;;
9224;SDS011;4647;48.072;11.616;2022-12-10T08:23:41;47.40;;;28.20;;
9224;SDS011;4647;48.072;11.616;2022-12-10T08:26:09;43.50;;;26.50;;
9224;SDS011;4647;48.072;11.616;2022-12-10T08:28:37;40.13;;;25.43;;
9224;SDS011;4647;48.072;11.616;2022-12-10T08:31:04;42.67;;;26.83;;
9224;SDS011;4647;48.072;11.616;2022-12-10T08:33:35;49.93;;;32.50;;
9224;SDS011;4647;48.072;11.616;2022-12-10T08:36:03;52.30;;;36.13;;
9224;SDS011;4647;48.072;11.616;2022-12-10T08:38:32;45.00;;;27.90;;
9224;SDS011;4647;48.072;11.616;2022-12-10T08:41:04;38.67;;;25.50;;
9224;SDS011;4647;48.072;11.616;2022-12-10T08:43:32;38.70;;;24.40;;
9224;SDS011;4647;48.072;11.616;2022-12-10T08:45:59;43.10;;;25.77;;
9224;SDS011;4647;48.072;11.616;2022-12-10T08:48:26;38.27;;;24.13;;
9224;SDS011;4647;48.072;11.616;2022-12-10T08:50:53;35.37;;;23.60;;
9224;SDS011;4647;48.072;11.616;2022-12-10T08:53:20;44.63;;;30.07;;
9224;SDS011;4647;48.072;11.616;2022-12-10T08:55:50;40.27;;;24.70;;
9224;SDS011;4647;48.072;11.616;2022-12-10T08:58:17;37.13;;;24.30;;
9224;SDS011;4647;48.072;11.616;2022-12-10T09:00:44;40.77;;;25.83;;
9224;SDS011;4647;48.072;11.616;2022-12-10T09:03:11;38.20;;;24.73;;
9224;SDS011;4647;48.072;11.616;2022-12-10T09:05:38;32.73;;;23.57;;
9224;SDS011;4647;48.072;11.616;2022-12-10T09:08:05;36.97;;;23.97;;
9224;SDS011;4647;48.072;11.616;2022-12-10T09:10:32;44.57;;;24.07;;
9224;SDS011;4647;48.072;11.616;2022-12-10T09:13:02;36.07;;;24.00;;
9224;SDS011;4647;48.072;11.616;2022-12-10T09:15:29;31.53;;;21.83;;
9224;SDS011;4647;48.072;11.616;2022-12-10T09:17:56;36.53;;;21.73;;
9224;SDS011;4647;48.072;11.616;2022-12-10T09:20:23;35.00;;;22.40;;
9224;SDS011;4647;48.072;11.616;2022-12-10T09:22:50;36.80;;;23.37;;
9224;SDS011;4647;48.072;11.616;2022-12-10T09:25:17;36.20;;;23.07;;
9224;SDS011;4647;48.072;11.616;2022-12-10T09:27:46;39.17;;;25.40;;
9224;SDS011;4647;48.072;11.616;2022-12-10T09:30:14;39.50;;;24.33;;
9224;SDS011;4647;48.072;11.616;2022-12-10T09:32:41;40.60;;;24.57;;
9224;SDS011;4647;48.072;11.616;2022-12-10T09:35:08;43.23;;;25.70;;
9224;SDS011;4647;48.072;11.616;2022-12-10T09:37:35;40.67;;;26.90;;
9224;SDS011;4647;48.072;11.616;2022-12-10T09:40:02;51.10;;;30.40;;
9224;SDS011;4647;48.072;11.616;2022-12-10T09:42:33;42.27;;;26.37;;
9224;SDS011;4647;48.072;11.616;2022-12-10T09:45:11;42.97;;;26.53;;
9224;SDS011;4647;48.072;11.616;2022-12-10T09:47:45;50.30;;;31.10;;
9224;SDS011;4647;48.072;11.616;2022-12-10T09:50:23;47.63;;;28.00;;
9224;SDS011;4647;48.072;11.616;2022-12-10T09:52:55;46.43;;;28.03;;
9224;SDS011;4647;48.072;11.616;2022-12-10T09:55:28;43.67;;;26.63;;
9224;SDS011;4647;48.072;11.616;2022-12-10T09:58:00;44.73;;;27.60;;
9224;SDS011;4647;48.072;11.616;2022-12-10T10:00:32;43.30;;;26.03;;
9224;SDS011;4647;48.072;11.616;2022-12-10T10:03:01;44.53;;;27.40;;
9224;SDS011;4647;48.072;11.616;2022-12-10T10:05:30;45.80;;;26.33;;
9224;SDS011;4647;48.072;11.616;2022-12-10T10:08:01;47.00;;;27.97;;
9224;SDS011;4647;48.072;11.616;2022-12-10T10:10:34;46.43;;;27.47;;
9224;SDS011;4647;48.072;11.616;2022-12-10T10:13:10;45.60;;;28.77;;
9224;SDS011;4647;48.072;11.616;2022-12-10T10:15:44;48.20;;;27.43;;
9224;SDS011;4647;48.072;11.616;2022-12-10T10:18:14;44.53;;;27.50;;
9224;SDS011;4647;48.072;11.616;2022-12-10T10:20:47;46.73;;;28.00;;
9224;SDS011;4647;48.072;11.616;2022-12-10T10:23:15;46.90;;;29.50;;
9224;SDS011;4647;48.072;11.616;2022-12-10T10:25:42;45.87;;;29.23;;
9224;SDS011;4647;48.072;11.616;2022-12-10T10:28:11;49.03;;;30.40;;
9224;SDS011;4647;48.072;11.616;2022-12-10T10:30:40;45.50;;;27.00;;
9224;SDS011;4647;48.072;11.616;2022-12-10T10:33:12;48.27;;;28.67;;
9224;SDS011;4647;48.072;11.616;2022-12-10T10:35:42;46.77;;;28.50;;
9224;SDS011;4647;48.072;11.616;2022-12-10T10:38:13;42.10;;;27.93;;
9224;SDS011;4647;48.072;11.616;2022-12-10T10:40:44;52.47;;;29.80;;
9224;SDS011;4647;48.072;11.616;2022-12-10T10:43:15;49.83;;;29.30;;
9224;SDS011;4647;48.072;11.616;2022-12-10T10:45:51;49.63;;;28.63;;
9224;SDS011;4647;48.072;11.616;2022-12-10T10:48:22;44.73;;;26.97;;
9224;SDS011;4647;48.072;11.616;2022-12-10T10:50:51;46.97;;;28.67;;
9224;SDS011;4647;48.072;11.616;2022-12-10T10:53:20;47.23;;;29.10;;
9224;SDS011;4647;48.072;11.616;2022-12-10T10:55:56;55.30;;;32.03;;
9224;SDS011;4647;48.072;11.616;2022-12-10T10:58:27;45.07;;;28.47;;
9224;SDS011;4647;48.072;11.616;2022-12-10T11:00:55;44.03;;;27.47;;
9224;SDS011;4647;48.072;11.616;2022-12-10T11:03:26;67.57;;;33.83;;
9224;SDS011;4647;48.072;11.616;2022-12-10T11:05:55;46.83;;;27.73;;
9224;SDS011;4647;48.072;11.616;2022-12-10T11:08:24;46.87;;;27.43;;
9224;SDS011;4647;48.072;11.616;2022-12-10T11:10:55;54.67;;;32.00;;
9224;SDS011;4647;48.072;11.616;2022-12-10T11:13:27;47.80;;;29.90;;
9224;SDS011;4647;48.072;11.616;2022-12-10T11:15:55;57.87;;;32.37;;
9224;SDS011;4647;48.072;11.616;2022-12-10T11:18:29;44.30;;;28.43;;
9224;SDS011;4647;48.072;11.616;2022-12-10T11:21:02;53.47;;;33.83;;
9224;SDS011;4647;48.072;11.616;2022-12-10T11:23:35;48.10;;;28.93;;
9224;SDS011;4647;48.072;11.616;2022-12-10T11:26:10;43.37;;;25.80;;
9224;SDS011;4647;48.072;11.616;2022-12-10T11:28:47;44.50;;;27.23;;
9224;SDS011;4647;48.072;11.616;2022-12-10T11:31:26;45.37;;;27.30;;
9224;SDS011;4647;48.072;11.616;2022-12-10T11:34:13;42.70;;;24.83;;
9224;SDS011;4647;48.072;11.616;2022-12-10T11:36:47;44.60;;;26.13;;
9224;SDS011;4647;48.072;11.616;2022-12-10T11:39:25;42.90;;;25.17;;
9224;SDS011;4647;48.072;11.616;2022-12-10T11:42:12;44.87;;;26.40;;
9224;SDS011;4647;48.072;11.616;2022-12-10T11:44:47;46.17;;;26.60;;
9224;SDS011;4647;48.072;11.616;2022-12-10T11:47:27;52.77;;;28.37;;
9224;SDS011;4647;48.072;11.616;2022-12-10T11:50:12;40.67;;;25.43;;
9224;SDS011;4647;48.072;11.616;2022-12-10T11:52:53;45.97;;;28.17;;
9224;SDS011;4647;48.072;11.616;2022-12-10T11:55:35;44.50;;;28.63;;
9224;SDS011;4647;48.072;11.616;2022-12-10T11:58:17;48.57;;;28.23;;
9224;SDS011;4647;48.072;11.616;2022-12-10T12:01:08;47.30;;;29.17;;
9224;SDS011;4647;48.072;11.616;2022-12-10T12:03:54;46.40;;;26.60;;
9224;SDS011;4647;48.072;11.616;2022-12-10T12:09:30;49.07;;;26.83;;
9224;SDS011;4647;48.072;11.616;2022-12-10T12:12:09;43.53;;;25.53;;
9224;SDS011;4647;48.072;11.616;2022-12-10T12:14:43;38.53;;;24.30;;
9224;SDS011;4647;48.072;11.616;2022-12-10T12:17:13;46.83;;;26.60;;
9224;SDS011;4647;48.072;11.616;2022-12-10T12:19:47;38.03;;;25.57;;
9224;SDS011;4647;48.072;11.616;2022-12-10T12:22:21;41.10;;;25.43;;
9224;SDS011;4647;48.072;11.616;2022-12-10T12:24:53;45.17;;;26.63;;
9224;SDS011;4647;48.072;11.616;2022-12-10T12:27:25;46.13;;;26.13;;
9224;SDS011;4647;48.072;11.616;2022-12-10T12:30:04;44.63;;;27.67;;
9224;SDS011;4647;48.072;11.616;2022-12-10T12:32:44;44.83;;;28.03;;
9224;SDS011;4647;48.072;11.616;2022-12-10T12:35:18;40.80;;;25.50;;
9224;SDS011;4647;48.072;11.616;2022-12-10T12:37:51;43.83;;;27.23;;
9224;SDS011;4647;48.072;11.616;2022-12-10T12:40:27;46.33;;;27.93;;
9224;SDS011;4647;48.072;11.616;2022-12-10T12:42:57;48.93;;;26.80;;
9224;SDS011;4647;48.072;11.616;2022-12-10T12:45:30;47.57;;;27.87;;
9224;SDS011;4647;48.072;11.616;2022-12-10T12:48:02;51.33;;;26.03;;
9224;SDS011;4647;48.072;11.616;2022-12-10T12:50:40;57.03;;;33.70;;
9224;SDS011;4647;48.072;11.616;2022-12-10T12:53:09;63.90;;;40.10;;
9224;SDS011;4647;48.072;11.616;2022-12-10T12:55:43;42.63;;;26.87;;
9224;SDS011;4647;48.072;11.616;2022-12-10T12:58:19;48.23;;;27.70;;
9224;SDS011;4647;48.072;11.616;2022-12-10T13:00:55;46.37;;;26.10;;
9224;SDS011;4647;48.072;11.616;2022-12-10T13:03:29;44.87;;;26.80;;
9224;SDS011;4647;48.072;11.616;2022-12-10T13:06:13;44.33;;;26.27;;
9224;SDS011;4647;48.072;11.616;2022-12-10T13:08:42;39.40;;;25.07;;
9224;SDS011;4647;48.072;11.616;2022-12-10T13:11:29;44.03;;;25.33;;
9224;SDS011;4647;48.072;11.616;2022-12-10T13:14:18;41.20;;;25.07;;
9224;SDS011;4647;48.072;11.616;2022-12-10T13:19:52;40.27;;;24.87;;
9224;SDS011;4647;48.072;11.616;2022-12-10T13:22:40;43.77;;;26.70;;
9224;SDS011;4647;48.072;11.616;2022-12-10T13:25:11;45.27;;;26.33;;
9224;SDS011;4647;48.072;11.616;2022-12-10T13:27:55;44.33;;;26.37;;
9224;SDS011;4647;48.072;11.616;2022-12-10T13:30:32;45.10;;;26.87;;
9224;SDS011;4647;48.072;11.616;2022-12-10T13:33:10;44.37;;;26.43;;
9224;SDS011;4647;48.072;11.616;2022-12-10T13:35:49;46.50;;;26.67;;
9224;SDS011;4647;48.072;11.616;2022-12-10T13:38:23;47.43;;;28.10;;
9224;SDS011;4647;48.072;11.616;2022-12-10T13:41:01;44.70;;;26.13;;
9224;SDS011;4647;48.072;11.616;2022-12-10T13:43:53;50.40;;;28.57;;
9224;SDS011;4647;48.072;11.616;2022-12-10T13:49:26;48.73;;;27.60;;
9224;SDS011;4647;48.072;11.616;2022-12-10T13:51:55;50.30;;;28.63;;
9224;SDS011;4647;48.072;11.616;2022-12-10T13:54:53;48.00;;;27.80;;
9224;SDS011;4647;48.072;11.616;2022-12-10T13:57:40;44.57;;;27.23;;
9224;SDS011;4647;48.072;11.616;2022-12-10T14:00:21;45.73;;;28.50;;
9224;SDS011;4647;48.072;11.616;2022-12-10T14:02:56;48.17;;;28.17;;
9224;SDS011;4647;48.072;11.616;2022-12-10T14:06:00;49.43;;;30.17;;
9224;SDS011;4647;48.072;11.616;2022-12-10T14:08:53;47.90;;;28.40;;
9224;SDS011;4647;48.072;11.616;2022-12-10T14:11:23;47.10;;;28.13;;
9224;SDS011;4647;48.072;11.616;2022-12-10T14:13:54;51.80;;;29.13;;
9224;SDS011;4647;48.072;11.616;2022-12-10T14:16:26;48.80;;;28.80;;
9224;SDS011;4647;48.072;11.616;2022-12-10T14:18:55;46.90;;;26.63;;
9224;SDS011;4647;48.072;11.616;2022-12-10T14:21:25;50.23;;;30.17;;
9224;SDS011;4647;48.072;11.616;2022-12-10T14:23:52;50.93;;;30.37;;
9224;SDS011;4647;48.072;11.616;2022-12-10T14:26:20;46.97;;;29.10;;
9224;SDS011;4647;48.072;11.616;2022-12-10T14:28:54;43.30;;;26.80;;
9224;SDS011;4647;48.072;11.616;2022-12-10T14:31:23;41.13;;;26.03;;
9224;SDS011;4647;48.072;11.616;2022-12-10T14:33:56;43.03;;;26.70;;
9224;SDS011;4647;48.072;11.616;2022-12-10T14:36:28;46.27;;;27.40;;
9224;SDS011;4647;48.072;11.616;2022-12-10T14:38:58;46.10;;;30.40;;
9224;SDS011;4647;48.072;11.616;2022-12-10T14:41:27;43.60;;;27.50;;
9224;SDS011;4647;48.072;11.616;2022-12-10T14:43:57;46.73;;;28.73;;
9224;SDS011;4647;48.072;11.616;2022-12-10T14:46:30;45.53;;;29.17;;
9224;SDS011;4647;48.072;11.616;2022-12-10T14:48:58;48.87;;;29.63;;
9224;SDS011;4647;48.072;11.616;2022-12-10T14:51:25;52.40;;;29.73;;
9224;SDS011;4647;48.072;11.616;2022-12-10T14:53:57;46.67;;;27.97;;
9224;SDS011;4647;48.072;11.616;2022-12-10T14:56:25;46.40;;;28.27;;
9224;SDS011;4647;48.072;11.616;2022-12-10T14:58:59;42.50;;;27.33;;
9224;SDS011;4647;48.072;11.616;2022-12-10T15:01:32;43.67;;;27.13;;
9224;SDS011;4647;48.072;11.616;2022-12-10T15:04:01;43.80;;;25.73;;